Time;durP1;ratioP1;P1;durP2;ratioP2;P2;SDS_P1;SDS_P2;PMS_P1;PMS_P2;Temp;Humidity;BMP_temperature;BMP_pressure;BME280_temperature;BME280_humidity;BME280_pressure;Samples;Min_cycle;Max_cycle;Signal;HPM_P1;HPM_P2
2023/12/29 00:02:22;;;;;;;27.27;15.32;;;;;;;6.30;75.50;100567.84;5138563;28;20070;-68
2023/12/29 00:04:47;;;;;;;26.85;14.57;;;;;;;5.95;77.76;100572.19;5138313;28;20046;-68
2023/12/29 00:07:13;;;;;;;32.42;16.55;;;;;;;5.94;77.48;100575.78;5137901;28;20328;-66
2023/12/29 00:09:40;;;;;;;34.35;20.48;;;;;;;6.05;77.05;100568.78;5138233;28;20115;-66
2023/12/29 00:12:07;;;;;;;32.40;20.95;;;;;;;6.15;76.47;100562.84;5139104;28;20035;-68
2023/12/29 00:14:33;;;;;;;30.40;18.70;;;;;;;6.27;74.91;100557.53;5139345;28;20317;-68
2023/12/29 00:16:59;;;;;;;24.15;15.35;;;;;;;6.30;75.50;100557.31;5139071;28;20080;-66
2023/12/29 00:19:25;;;;;;;23.77;13.93;;;;;;;6.38;74.49;100549.69;5139450;28;20019;-68
2023/12/29 00:21:51;;;;;;;25.58;14.27;;;;;;;6.38;75.01;100556.72;5138564;28;20363;-65
2023/12/29 00:24:17;;;;;;;23.83;13.50;;;;;;;6.35;74.86;100546.44;5139172;28;20102;-68
2023/12/29 00:26:42;;;;;;;19.65;12.45;;;;;;;6.32;74.09;100547.50;5139571;28;20042;-68
2023/12/29 00:29:08;;;;;;;21.88;12.40;;;;;;;6.27;74.21;100548.81;5138599;28;20035;-68
2023/12/29 00:31:34;;;;;;;24.70;14.45;;;;;;;6.16;75.00;100543.47;5138509;28;20308;-68
2023/12/29 00:33:59;;;;;;;26.10;14.65;;;;;;;6.10;75.59;100550.03;5137765;28;20248;-67
2023/12/29 00:36:25;;;;;;;24.05;13.95;;;;;;;6.16;75.94;100540.84;5138468;28;20035;-68
2023/12/29 00:38:50;;;;;;;24.92;15.10;;;;;;;6.23;75.15;100545.53;5138817;28;20321;-66
2023/12/29 00:41:16;;;;;;;22.60;14.23;;;;;;;6.29;75.07;100533.75;5139490;28;20088;-67
2023/12/29 00:43:41;;;;;;;26.10;14.05;;;;;;;6.39;74.62;100543.47;5138031;28;20042;-68
2023/12/29 00:46:08;;;;;;;28.95;16.83;;;;;;;6.44;74.50;100547.53;5138485;28;20031;-68
2023/12/29 00:48:34;;;;;;;27.17;14.95;;;;;;;6.50;74.28;100550.53;5139085;28;20267;-67
2023/12/29 00:51:03;;;;;;;22.50;14.48;;;;;;;6.45;74.39;100538.69;5138753;28;20039;-65
2023/12/29 00:53:31;;;;;;;29.02;17.45;;;;;;;6.42;74.13;100539.75;5138539;28;20274;-66
2023/12/29 00:55:57;;;;;;;30.98;16.75;;;;;;;6.01;75.54;100537.56;5140017;27;20043;-68
2023/12/29 00:58:23;;;;;;;31.08;16.80;;;;;;;6.11;76.29;100543.00;5142710;27;20035;-67
2023/12/29 01:00:48;;;;;;;27.85;17.08;;;;;;;6.06;75.98;100535.44;5142568;27;20250;-68
2023/12/29 01:03:14;;;;;;;33.65;18.70;;;;;;;6.06;75.98;100533.66;5141949;27;20118;-67
2023/12/29 01:05:39;;;;;;;36.30;22.45;;;;;;;6.05;75.76;100528.50;5142733;27;20031;-68
2023/12/29 01:08:05;;;;;;;38.25;23.52;;;;;;;6.25;74.58;100529.69;5142185;27;20038;-66
2023/12/29 01:10:31;;;;;;;34.63;21.83;;;;;;;6.16;72.95;100533.81;5142185;27;20046;-68
2023/12/29 01:12:56;;;;;;;30.00;18.30;;;;;;;6.11;72.89;100529.84;5142021;27;20039;-68
2023/12/29 01:15:22;;;;;;;30.17;17.35;;;;;;;5.85;72.73;100527.31;5142193;27;20047;-68
2023/12/29 01:17:47;;;;;;;22.77;13.27;;;;;;;4.86;71.84;100523.06;5141406;27;20034;-66
2023/12/29 01:20:13;;;;;;;19.95;12.27;;;;;;;4.09;74.03;100514.31;5141187;27;20038;-68
2023/12/29 01:22:39;;;;;;;21.13;13.65;;;;;;;3.98;76.19;100511.56;5141410;27;20031;-66
2023/12/29 01:25:05;;;;;;;22.98;13.20;;;;;;;4.00;76.99;100507.91;5142309;27;20058;-68
2023/12/29 01:27:31;;;;;;;21.42;11.93;;;;;;;4.22;77.01;100504.72;5142305;27;20047;-65
2023/12/29 01:29:56;;;;;;;16.38;10.65;;;;;;;4.46;76.08;100500.44;5142382;27;20342;-67
2023/12/29 01:32:22;;;;;;;23.60;13.40;;;;;;;4.69;75.47;100496.22;5141718;27;20055;-68
2023/12/29 01:34:47;;;;;;;20.70;12.95;;;;;;;4.77;75.30;100496.53;5141528;27;20039;-68
2023/12/29 01:37:13;;;;;;;27.77;14.32;;;;;;;4.98;74.00;100496.81;5141978;27;20297;-66
2023/12/29 01:39:40;;;;;;;22.50;13.88;;;;;;;5.05;73.47;100494.59;5141321;27;20341;-66
2023/12/29 01:42:05;;;;;;;27.30;14.40;;;;;;;5.15;73.26;100500.88;5141890;27;20039;-67
2023/12/29 01:44:31;;;;;;;27.08;15.15;;;;;;;5.12;74.65;100495.84;5141807;27;20426;-68
2023/12/29 01:46:59;;;;;;;43.63;27.67;;;;;;;5.17;74.68;100498.13;5140879;27;20043;-67
2023/12/29 01:49:26;;;;;;;38.67;24.38;;;;;;;5.25;75.71;100495.84;5141056;27;20083;-65
2023/12/29 01:51:57;;;;;;;38.10;22.13;;;;;;;5.44;75.12;100497.03;5141048;27;20107;-68
2023/12/29 01:54:25;;;;;;;25.67;16.20;;;;;;;5.56;74.46;100486.56;5140488;27;20347;-68
2023/12/29 01:56:55;;;;;;;25.73;14.20;;;;;;;5.29;75.21;100486.78;5141462;27;20043;-68
2023/12/29 01:59:21;;;;;;;30.52;17.75;;;;;;;5.49;74.40;100486.19;5141148;27;20027;-68
2023/12/29 02:01:47;;;;;;;39.20;25.23;;;;;;;5.52;73.51;100480.72;5141238;27;20103;-65
2023/12/29 02:04:14;;;;;;;29.08;20.65;;;;;;;5.58;73.65;100482.88;5141195;27;20116;-67
2023/12/29 02:06:40;;;;;;;27.80;17.88;;;;;;;5.59;73.13;100488.97;5141483;27;20099;-66
2023/12/29 02:09:05;;;;;;;19.92;12.35;;;;;;;5.31;74.52;100492.75;5140266;27;20341;-68
2023/12/29 02:11:31;;;;;;;20.88;12.02;;;;;;;5.37;74.75;100485.28;5141197;27;20038;-66
2023/12/29 02:13:58;;;;;;;16.55;10.27;;;;;;;5.43;74.12;100494.50;5140861;27;20039;-68
2023/12/29 02:16:54;;;;;;;16.20;9.85;;;;;;;5.50;74.04;100492.28;5141257;27;20116;-66
2023/12/29 02:19:42;;;;;;;14.15;9.25;;;;;;;5.45;73.66;100485.56;5140730;27;20035;-68
2023/12/29 02:22:08;;;;;;;14.07;9.73;;;;;;;5.39;73.54;100488.63;5140955;27;20069;-66
2023/12/29 02:24:37;;;;;;;18.85;9.55;;;;;;;5.37;73.64;100481.81;5141185;27;20091;-68
2023/12/29 02:27:23;;;;;;;14.57;8.98;;;;;;;5.36;73.91;100485.41;5140876;27;20098;-66
2023/12/29 02:30:02;;;;;;;13.15;9.23;;;;;;;5.51;72.85;100486.91;5140848;27;20337;-65
2023/12/29 02:32:30;;;;;;;15.77;10.60;;;;;;;5.44;71.45;100477.78;5140392;27;20031;-68
2023/12/29 02:34:57;;;;;;;20.55;11.40;;;;;;;5.51;69.03;100488.69;5140630;27;20054;-68
2023/12/29 02:37:24;;;;;;;18.60;9.80;;;;;;;5.50;69.61;100487.03;5140711;27;20325;-68
2023/12/29 02:39:50;;;;;;;17.23;10.68;;;;;;;5.49;71.32;100480.94;5140522;27;20202;-67
2023/12/29 02:42:15;;;;;;;19.25;10.55;;;;;;;5.47;71.40;100480.19;5140199;27;20031;-68
2023/12/29 02:44:41;;;;;;;17.58;11.57;;;;;;;5.26;72.12;100468.63;5139317;27;20027;-68
2023/12/29 02:47:06;;;;;;;20.85;11.85;;;;;;;4.88;73.87;100464.28;5139128;27;20071;-66
2023/12/29 02:49:32;;;;;;;22.15;12.52;;;;;;;4.62;75.30;100460.88;5139421;27;20031;-68
2023/12/29 02:51:57;;;;;;;21.35;12.82;;;;;;;4.43;77.05;100450.81;5139847;27;20037;-66
2023/12/29 02:54:22;;;;;;;22.35;13.07;;;;;;;4.55;77.99;100449.13;5140486;27;20045;-68
2023/12/29 02:56:48;;;;;;;18.25;12.93;;;;;;;4.79;76.72;100454.44;5140461;27;20031;-67
2023/12/29 02:59:13;;;;;;;24.63;14.18;;;;;;;4.88;76.30;100443.31;5140107;27;20037;-68
2023/12/29 03:01:39;;;;;;;23.33;12.88;;;;;;;5.13;75.38;100458.97;5140191;27;20222;-66
2023/12/29 03:04:04;;;;;;;21.90;13.55;;;;;;;5.21;74.62;100465.50;5140392;27;20031;-66
2023/12/29 03:06:30;;;;;;;26.42;16.63;;;;;;;5.36;74.49;100467.00;5140675;27;20065;-68
2023/12/29 03:08:55;;;;;;;26.48;15.38;;;;;;;5.19;73.67;100438.47;5139788;27;20317;-66
2023/12/29 03:11:21;;;;;;;31.83;20.40;;;;;;;5.40;73.40;100455.34;5140394;27;20031;-66
2023/12/29 03:13:46;;;;;;;31.90;21.45;;;;;;;5.27;74.00;100457.19;5140120;27;20358;-66
2023/12/29 03:16:11;;;;;;;23.33;14.93;;;;;;;5.18;73.49;100455.19;5139599;27;20464;-65
2023/12/29 03:18:39;;;;;;;21.25;13.65;;;;;;;5.01;69.23;100445.88;5138775;27;20371;-67
2023/12/29 03:21:05;;;;;;;20.45;12.27;;;;;;;4.79;69.01;100443.94;5138907;27;20084;-68
2023/12/29 03:23:31;;;;;;;22.40;11.40;;;;;;;4.40;68.40;100447.56;5138841;27;20258;-68
2023/12/29 03:25:56;;;;;;;21.25;11.82;;;;;;;4.22;69.44;100443.59;5139592;27;20087;-66
2023/12/29 03:28:21;;;;;;;22.10;13.20;;;;;;;4.21;70.67;100442.75;5139797;27;20267;-68
2023/12/29 03:30:47;;;;;;;19.30;13.02;;;;;;;4.23;70.37;100448.72;5138904;27;20045;-65
2023/12/29 03:33:12;;;;;;;17.30;11.75;;;;;;;4.22;72.83;100441.81;5138631;27;20031;-65
2023/12/29 03:35:38;;;;;;;20.20;11.10;;;;;;;4.12;73.86;100441.56;5139926;27;20039;-68
2023/12/29 03:38:03;;;;;;;18.27;12.32;;;;;;;4.33;73.70;100431.41;5139517;27;20243;-66
2023/12/29 03:40:29;;;;;;;21.48;11.95;;;;;;;4.42;73.31;100430.78;5140094;27;20251;-66
2023/12/29 03:42:55;;;;;;;21.52;13.00;;;;;;;4.58;72.94;100433.19;5139865;27;20225;-68
2023/12/29 03:45:20;;;;;;;21.73;12.77;;;;;;;4.62;73.18;100423.31;5139679;27;20042;-66
2023/12/29 03:47:45;;;;;;;24.10;12.93;;;;;;;4.79;72.71;100426.41;5139420;27;20059;-66
2023/12/29 03:50:11;;;;;;;22.98;14.05;;;;;;;4.59;74.25;100423.53;5139718;28;20042;-67
2023/12/29 03:52:36;;;;;;;23.60;14.55;;;;;;;4.82;74.25;100423.59;5139877;28;20123;-66
2023/12/29 03:55:02;;;;;;;25.48;13.45;;;;;;;4.75;75.08;100422.34;5139491;28;20043;-68
2023/12/29 03:57:28;;;;;;;23.58;14.05;;;;;;;4.90;75.52;100424.81;5139546;28;20031;-66
2023/12/29 03:59:54;;;;;;;23.33;15.70;;;;;;;4.93;76.21;100432.47;5139787;28;20236;-67
2023/12/29 04:02:19;;;;;;;40.70;26.88;;;;;;;4.77;76.22;100433.56;5138381;28;20092;-68
2023/12/29 04:04:45;;;;;;;47.22;23.48;;;;;;;4.95;75.41;100422.72;5139259;28;20031;-68
2023/12/29 04:07:11;;;;;;;41.88;20.83;;;;;;;4.94;75.27;100431.53;5139136;28;20034;-65
2023/12/29 04:09:36;;;;;;;25.95;15.07;;;;;;;4.93;75.31;100420.19;5139526;28;20073;-66
2023/12/29 04:12:02;;;;;;;21.65;13.27;;;;;;;5.09;74.34;100420.78;5139741;28;20031;-68
2023/12/29 04:14:27;;;;;;;30.52;16.13;;;;;;;5.08;73.85;100411.22;5139666;28;20039;-68
2023/12/29 04:16:53;;;;;;;24.88;15.15;;;;;;;5.01;70.83;100407.34;5139298;28;20035;-66
2023/12/29 04:19:18;;;;;;;26.55;14.02;;;;;;;4.74;67.73;100414.56;5138411;28;20027;-67
2023/12/29 04:21:44;;;;;;;21.98;13.45;;;;;;;4.72;68.38;100416.47;5139001;28;20050;-66
2023/12/29 04:24:09;;;;;;;22.40;13.95;;;;;;;4.67;69.38;100411.53;5138907;28;20043;-66
2023/12/29 04:26:36;;;;;;;22.85;14.70;;;;;;;4.68;68.71;100407.97;5139627;28;20288;-66
2023/12/29 04:29:02;;;;;;;23.90;14.80;;;;;;;4.81;70.28;100402.69;5139425;28;20042;-65
2023/12/29 04:31:28;;;;;;;21.77;14.15;;;;;;;4.91;69.83;100408.13;5141279;27;20034;-66
2023/12/29 04:33:53;;;;;;;25.60;15.75;;;;;;;4.96;70.68;100412.09;5142698;27;20042;-68
2023/12/29 04:36:19;;;;;;;24.55;15.35;;;;;;;5.04;70.64;100401.06;5142923;27;20231;-68
2023/12/29 04:38:44;;;;;;;27.98;15.52;;;;;;;5.06;70.43;100404.41;5142879;27;20035;-66
2023/12/29 04:41:12;;;;;;;25.27;16.30;;;;;;;5.04;69.96;100404.50;5143053;27;20062;-66
2023/12/29 04:43:38;;;;;;;23.33;14.50;;;;;;;5.07;69.09;100406.91;5143021;27;20062;-68
2023/12/29 04:46:03;;;;;;;20.63;14.18;;;;;;;4.99;68.74;100408.41;5142933;27;20096;-68
2023/12/29 04:48:29;;;;;;;23.92;13.95;;;;;;;4.90;70.35;100401.19;5142840;27;20043;-68
2023/12/29 04:50:54;;;;;;;22.80;15.35;;;;;;;4.79;71.14;100399.34;5142927;27;20035;-68
2023/12/29 04:53:20;;;;;;;29.13;16.05;;;;;;;4.78;72.20;100405.53;5142773;27;20255;-65
2023/12/29 04:55:45;;;;;;;21.88;14.45;;;;;;;4.88;71.04;100413.59;5142952;27;20055;-68
2023/12/29 04:58:11;;;;;;;24.13;14.23;;;;;;;4.94;70.43;100406.13;5142806;27;20092;-68
2023/12/29 05:00:37;;;;;;;21.20;14.63;;;;;;;4.97;70.29;100410.31;5143125;27;20088;-67
2023/12/29 05:03:03;;;;;;;25.80;14.82;;;;;;;4.25;75.40;100407.50;5142133;27;20130;-66
2023/12/29 05:05:28;;;;;;;35.15;18.15;;;;;;;4.08;76.56;100406.00;5142429;27;20043;-66
2023/12/29 05:07:55;;;;;;;24.60;14.52;;;;;;;3.69;71.50;100414.78;5141914;27;20312;-66
2023/12/29 05:10:20;;;;;;;19.52;13.57;;;;;;;3.33;74.02;100423.28;5142383;27;20039;-65
2023/12/29 05:12:46;;;;;;;22.00;12.15;;;;;;;3.26;74.85;100423.75;5142223;27;20038;-68
2023/12/29 05:15:11;;;;;;;15.95;10.10;;;;;;;3.36;75.06;100420.44;5142442;27;20047;-67
2023/12/29 05:17:39;;;;;;;19.92;10.75;;;;;;;3.19;74.84;100424.16;5141728;27;20039;-67
2023/12/29 05:20:06;;;;;;;17.30;9.07;;;;;;;3.36;74.81;100417.84;5141897;27;20292;-68
2023/12/29 05:22:32;;;;;;;17.95;9.82;;;;;;;3.52;74.66;100409.81;5142310;27;20084;-68
2023/12/29 05:24:59;;;;;;;14.48;9.43;;;;;;;3.73;74.01;100416.25;5141385;27;20042;-66
2023/12/29 05:27:25;;;;;;;16.77;10.13;;;;;;;3.83;73.35;100406.84;5142080;27;20126;-65
2023/12/29 05:29:51;;;;;;;15.27;8.57;;;;;;;3.98;72.98;100414.59;5142062;27;20031;-67
2023/12/29 05:32:17;;;;;;;17.73;9.95;;;;;;;4.11;72.54;100410.22;5141470;27;20348;-66
2023/12/29 05:34:43;;;;;;;15.18;9.35;;;;;;;4.26;71.95;100414.44;5141895;27;20206;-65
2023/12/29 05:37:08;;;;;;;17.33;9.85;;;;;;;4.29;71.81;100413.38;5141481;27;20053;-65
2023/12/29 05:39:34;;;;;;;16.45;9.48;;;;;;;4.39;71.98;100417.88;5142270;27;20063;-66
2023/12/29 05:41:59;;;;;;;18.63;10.18;;;;;;;4.50;70.77;100406.66;5141500;27;20050;-68
2023/12/29 05:44:25;;;;;;;29.40;16.83;;;;;;;4.59;70.07;100413.03;5141923;27;20031;-68
2023/12/29 05:46:51;;;;;;;28.35;14.88;;;;;;;4.49;70.67;100412.84;5141731;27;20043;-68
2023/12/29 05:49:16;;;;;;;31.58;17.52;;;;;;;4.40;71.12;100409.06;5141129;27;20325;-65
2023/12/29 05:51:44;;;;;;;30.27;18.60;;;;;;;4.41;72.22;100418.63;5142067;27;20044;-65
2023/12/29 05:54:09;;;;;;;30.05;20.20;;;;;;;4.47;72.65;100415.56;5141201;27;20353;-65
2023/12/29 05:56:35;;;;;;;40.75;23.33;;;;;;;4.58;72.50;100422.69;5141748;27;20038;-67
2023/12/29 05:59:00;;;;;;;45.25;24.25;;;;;;;4.67;71.85;100427.28;5141590;27;20031;-68
2023/12/29 06:01:26;;;;;;;33.30;19.70;;;;;;;4.65;71.87;100430.97;5141211;27;20348;-66
2023/12/29 06:03:51;;;;;;;40.88;21.52;;;;;;;4.55;73.00;100429.94;5141008;27;20348;-68
2023/12/29 06:06:17;;;;;;;32.17;18.02;;;;;;;4.65;72.72;100425.72;5140817;27;20023;-68
2023/12/29 06:08:43;;;;;;;43.20;23.35;;;;;;;4.66;73.02;100430.84;5140920;27;20077;-66
2023/12/29 06:11:08;;;;;;;37.33;20.33;;;;;;;4.66;72.27;100420.38;5141146;27;20096;-68
2023/12/29 06:13:34;;;;;;;33.67;19.25;;;;;;;4.77;72.04;100422.22;5141365;27;20207;-68
2023/12/29 06:15:59;;;;;;;37.38;22.30;;;;;;;4.81;71.20;100431.56;5141274;27;20397;-66
2023/12/29 06:18:25;;;;;;;43.05;23.35;;;;;;;4.77;71.69;100424.84;5141143;27;20042;-68
2023/12/29 06:20:50;;;;;;;37.58;20.42;;;;;;;4.71;71.31;100431.38;5141666;27;20023;-66
2023/12/29 06:23:17;;;;;;;26.15;15.70;;;;;;;4.69;69.24;100435.03;5140616;27;20341;-65
2023/12/29 06:25:42;;;;;;;26.52;17.60;;;;;;;4.63;68.79;100435.47;5141121;27;20288;-65
2023/12/29 06:28:08;;;;;;;25.77;15.93;;;;;;;4.62;68.54;100436.44;5140993;27;20077;-66
2023/12/29 06:30:33;;;;;;;30.60;16.48;;;;;;;4.68;68.51;100443.88;5141049;27;20027;-66
2023/12/29 06:32:59;;;;;;;31.60;18.00;;;;;;;4.72;68.91;100440.91;5140432;27;20041;-68
2023/12/29 06:35:24;;;;;;;30.50;18.27;;;;;;;4.76;70.17;100446.78;5141029;27;20050;-68
2023/12/29 06:37:50;;;;;;;46.13;21.00;;;;;;;4.77;70.64;100440.59;5140060;27;20333;-66
2023/12/29 06:40:16;;;;;;;40.20;25.80;;;;;;;4.88;70.86;100439.84;5140261;27;20035;-68
2023/12/29 06:42:42;;;;;;;38.65;22.10;;;;;;;4.96;71.45;100437.50;5140741;27;20046;-66
2023/12/29 06:45:08;;;;;;;38.83;26.67;;;;;;;5.06;71.99;100434.13;5140544;27;20058;-68
2023/12/29 06:47:33;;;;;;;40.58;25.13;;;;;;;5.11;71.82;100423.28;5140572;27;20317;-66
2023/12/29 06:49:59;;;;;;;41.70;27.30;;;;;;;5.07;71.80;100429.69;5140637;27;20321;-66
2023/12/29 06:52:25;;;;;;;39.83;26.75;;;;;;;5.22;71.46;100430.41;5140429;27;20031;-69
2023/12/29 06:54:51;;;;;;;52.55;28.52;;;;;;;5.31;72.22;100429.75;5139643;27;20035;-65
2023/12/29 06:57:16;;;;;;;48.05;30.73;;;;;;;5.28;72.55;100428.19;5140242;27;20091;-68
2023/12/29 06:59:42;;;;;;;47.08;29.38;;;;;;;5.32;72.87;100431.41;5140481;27;20034;-68
2023/12/29 07:02:07;;;;;;;36.78;24.90;;;;;;;5.38;72.97;100434.44;5139547;27;20055;-66
2023/12/29 07:04:33;;;;;;;32.50;22.95;;;;;;;5.45;73.02;100430.41;5139972;27;20035;-68
2023/12/29 07:07:00;;;;;;;34.90;21.92;;;;;;;5.54;72.73;100433.31;5140254;27;20035;-66
2023/12/29 07:09:26;;;;;;;24.25;15.25;;;;;;;5.64;72.87;100431.69;5139198;27;20280;-68
2023/12/29 07:11:51;;;;;;;24.98;14.98;;;;;;;5.76;73.04;100431.59;5139602;27;20043;-68
2023/12/29 07:14:17;;;;;;;25.35;14.95;;;;;;;5.72;73.19;100432.78;5139682;27;20057;-66
2023/12/29 07:16:43;;;;;;;19.80;12.63;;;;;;;5.89;72.68;100428.91;5140014;27;20041;-65
2023/12/29 07:19:08;;;;;;;15.90;9.90;;;;;;;5.99;72.81;100426.44;5140107;27;20031;-66
2023/12/29 07:21:34;;;;;;;17.98;12.77;;;;;;;5.97;73.58;100423.09;5140264;27;20224;-66
2023/12/29 07:24:00;;;;;;;18.83;12.80;;;;;;;5.96;73.84;100413.53;5139616;27;20075;-68
2023/12/29 07:26:25;;;;;;;28.63;17.42;;;;;;;6.22;73.78;100412.38;5139579;27;20041;-68
2023/12/29 07:28:54;;;;;;;29.00;16.92;;;;;;;6.29;73.75;100402.25;5139615;27;20031;-66
2023/12/29 07:31:20;;;;;;;19.27;12.15;;;;;;;6.18;74.77;100404.84;5140086;27;20076;-68
2023/12/29 07:33:46;;;;;;;17.73;11.27;;;;;;;6.42;74.32;100413.50;5139044;27;20107;-68
2023/12/29 07:36:11;;;;;;;20.15;9.63;;;;;;;6.43;73.73;100407.28;5139458;27;20039;-66
2023/12/29 07:38:37;;;;;;;18.33;12.98;;;;;;;6.70;73.07;100414.81;5139817;27;20353;-68
2023/12/29 07:41:03;;;;;;;18.40;10.60;;;;;;;6.85;71.99;100410.97;5140019;27;20039;-68
2023/12/29 07:43:28;;;;;;;15.25;9.48;;;;;;;6.93;72.43;100416.44;5139577;27;20038;-69
2023/12/29 07:45:54;;;;;;;14.55;9.13;;;;;;;6.94;72.94;100409.38;5139317;27;20087;-66
2023/12/29 07:48:19;;;;;;;15.70;9.40;;;;;;;7.01;73.19;100416.66;5139000;27;20030;-66
2023/12/29 07:50:45;;;;;;;19.83;11.95;;;;;;;7.10;72.87;100419.53;5138576;28;20360;-66
2023/12/29 07:53:10;;;;;;;17.73;10.38;;;;;;;7.12;73.55;100410.53;5138648;28;20320;-68
2023/12/29 07:55:42;;;;;;;18.85;12.32;;;;;;;7.42;72.71;100407.25;5139490;28;20038;-68
2023/12/29 07:58:10;;;;;;;20.88;11.65;;;;;;;7.64;71.92;100398.41;5139142;28;20034;-67
2023/12/29 08:00:36;;;;;;;15.70;11.38;;;;;;;7.80;71.65;100400.59;5139610;28;20263;-68
2023/12/29 08:03:01;;;;;;;17.50;11.93;;;;;;;7.88;71.50;100408.69;5138811;28;20100;-68
2023/12/29 08:05:27;;;;;;;21.27;12.20;;;;;;;8.04;70.96;100410.88;5141272;27;20039;-68
2023/12/29 08:07:52;;;;;;;20.50;13.15;;;;;;;8.13;70.21;100410.09;5143679;27;20341;-68
2023/12/29 08:10:17;;;;;;;22.30;13.45;;;;;;;8.25;69.92;100416.97;5143751;27;20031;-66
2023/12/29 08:12:43;;;;;;;19.27;13.32;;;;;;;8.27;70.56;100413.25;5143543;27;20035;-68
2023/12/29 08:15:08;;;;;;;31.58;16.83;;;;;;;8.22;70.77;100410.16;5143570;27;20047;-67
2023/12/29 08:17:34;;;;;;;30.05;17.33;;;;;;;8.23;70.24;100417.09;5143330;27;20027;-68
2023/12/29 08:19:59;;;;;;;31.95;16.73;;;;;;;7.87;72.29;100423.69;5143147;27;20046;-66
2023/12/29 08:22:25;;;;;;;52.85;26.92;;;;;;;7.79;74.06;100425.28;5142773;27;20035;-66
2023/12/29 08:24:50;;;;;;;20.73;13.63;;;;;;;7.59;74.97;100425.13;5143654;27;20043;-68
2023/12/29 08:27:24;;;;;;;18.65;12.60;;;;;;;7.76;74.65;100426.38;5143128;27;20321;-69
2023/12/29 08:29:49;;;;;;;;;;;;;;;7.73;75.33;100417.88;5144121;27;20042;-68
2023/12/29 08:32:15;;;;;;;22.42;12.95;;;;;;;7.96;74.50;100406.25;5142729;27;20217;-68
2023/12/29 08:34:40;;;;;;;16.70;10.95;;;;;;;7.77;74.98;100406.13;5142897;27;20031;-68
2023/12/29 08:37:05;;;;;;;19.17;11.20;;;;;;;7.77;75.68;100401.69;5142971;27;20031;-67
2023/12/29 08:39:31;;;;;;;19.20;11.52;;;;;;;7.81;75.91;100400.47;5143011;27;20033;-68
2023/12/29 08:41:56;;;;;;;19.05;12.63;;;;;;;7.98;75.60;100399.06;5142708;27;20329;-68
2023/12/29 08:44:22;;;;;;;17.20;11.48;;;;;;;8.14;75.75;100393.31;5143002;27;20038;-67
2023/12/29 08:46:48;;;;;;;20.25;11.38;;;;;;;8.44;74.51;100393.38;5143014;27;20186;-68
2023/12/29 08:49:13;;;;;;;21.20;10.77;;;;;;;8.61;73.32;100395.41;5142291;27;20038;-68
2023/12/29 08:51:38;;;;;;;16.00;11.00;;;;;;;8.75;72.96;100383.63;5143190;27;20031;-67
2023/12/29 08:54:04;;;;;;;17.90;10.63;;;;;;;8.90;72.77;100378.78;5142851;27;20051;-68
2023/12/29 08:56:30;;;;;;;17.85;9.57;;;;;;;9.01;72.76;100380.47;5142787;27;20027;-68
2023/12/29 08:58:55;;;;;;;19.73;10.45;;;;;;;9.13;72.47;100380.22;5141860;27;20031;-67
2023/12/29 09:01:21;;;;;;;15.80;10.93;;;;;;;9.20;72.15;100381.34;5142070;27;20055;-67
2023/12/29 09:03:46;;;;;;;16.17;10.82;;;;;;;9.32;72.09;100392.63;5142344;27;20080;-68
2023/12/29 09:06:12;;;;;;;18.25;10.57;;;;;;;9.38;71.19;100386.81;5142317;27;20034;-66
2023/12/29 09:08:37;;;;;;;17.67;10.85;;;;;;;9.40;71.09;100391.97;5142337;27;20039;-67
2023/12/29 09:11:04;;;;;;;20.40;12.30;;;;;;;9.32;71.19;100391.78;5142478;27;20042;-66
2023/12/29 09:13:29;;;;;;;21.50;11.73;;;;;;;9.45;71.23;100392.38;5142193;27;20039;-66
2023/12/29 09:15:55;;;;;;;23.70;11.63;;;;;;;9.55;71.47;100394.03;5141768;27;20065;-68
2023/12/29 09:18:20;;;;;;;16.70;11.88;;;;;;;9.62;70.96;100385.56;5141577;27;20043;-68
2023/12/29 09:20:46;;;;;;;17.05;11.98;;;;;;;9.67;70.50;100378.03;5142280;27;20058;-67
2023/12/29 09:23:11;;;;;;;18.13;11.50;;;;;;;9.76;70.18;100380.66;5142327;27;20035;-68
2023/12/29 09:25:37;;;;;;;20.65;13.25;;;;;;;9.81;69.85;100381.06;5142430;27;20361;-66
2023/12/29 09:28:03;;;;;;;18.02;11.55;;;;;;;9.83;69.57;100383.59;5141953;27;20054;-67
2023/12/29 09:30:28;;;;;;;18.92;10.80;;;;;;;9.95;69.21;100371.03;5141960;27;20237;-68
2023/12/29 09:32:53;;;;;;;19.05;11.98;;;;;;;10.02;69.15;100361.53;5141804;27;20038;-67
2023/12/29 09:35:20;;;;;;;18.58;12.35;;;;;;;10.07;69.17;100352.19;5141548;27;20046;-68
2023/12/29 09:37:48;;;;;;;20.35;12.38;;;;;;;9.98;68.40;100355.69;5142040;27;20031;-68
2023/12/29 09:40:14;;;;;;;23.30;13.10;;;;;;;10.08;68.83;100351.22;5141701;27;20038;-67
2023/12/29 09:42:42;;;;;;;17.77;10.55;;;;;;;10.07;68.49;100338.97;5141626;27;20106;-68
2023/12/29 09:45:11;;;;;;;23.92;13.95;;;;;;;10.17;68.24;100344.22;5141686;27;20110;-69
2023/12/29 09:47:39;;;;;;;20.17;11.32;;;;;;;10.23;68.08;100336.56;5141563;27;20237;-68
2023/12/29 09:50:06;;;;;;;29.70;12.68;;;;;;;10.20;67.84;100330.72;5141829;27;20034;-68
2023/12/29 09:52:33;;;;;;;19.60;12.15;;;;;;;10.34;67.74;100330.25;5141615;27;20035;-69
2023/12/29 09:54:59;;;;;;;18.45;10.73;;;;;;;10.43;67.57;100325.94;5141783;27;20039;-68
2023/12/29 09:57:25;;;;;;;15.48;9.82;;;;;;;10.50;67.41;100327.84;5141456;27;20413;-68
2023/12/29 09:59:51;;;;;;;15.85;10.15;;;;;;;10.55;66.96;100319.47;5141527;27;20035;-68
2023/12/29 10:02:17;;;;;;;22.08;14.50;;;;;;;10.55;66.78;100317.63;5140485;27;20245;-68
2023/12/29 10:04:42;;;;;;;23.63;15.73;;;;;;;10.62;66.22;100311.75;5141494;27;20035;-68
2023/12/29 10:07:13;;;;;;;19.52;12.20;;;;;;;10.75;65.19;100307.75;5141183;27;20037;-66
2023/12/29 10:09:40;;;;;;;17.75;11.23;;;;;;;10.77;64.46;100307.59;5141363;27;20059;-64
2023/12/29 10:12:10;;;;;;;14.63;9.88;;;;;;;10.79;64.61;100295.06;5141551;27;20094;-65
2023/12/29 10:14:57;;;;;;;20.52;10.18;;;;;;;10.77;64.84;100297.00;5140787;27;20364;-64
2023/12/29 10:17:44;;;;;;;15.13;10.48;;;;;;;10.78;64.51;100290.72;5141612;27;20161;-65
2023/12/29 10:20:19;;;;;;;16.15;10.18;;;;;;;10.81;64.67;100287.78;5140624;27;20262;-63
2023/12/29 10:23:08;;;;;;;13.02;7.40;;;;;;;10.81;63.78;100293.09;5140349;27;20110;-63
2023/12/29 10:25:34;;;;;;;12.32;8.70;;;;;;;10.85;63.11;100283.84;5141326;27;20255;-64
2023/12/29 10:28:00;;;;;;;11.93;7.32;;;;;;;10.95;63.14;100271.38;5140213;27;20530;-64
2023/12/29 10:30:26;;;;;;;10.10;7.88;;;;;;;10.72;62.50;100264.84;5140110;27;20034;-65
2023/12/29 10:32:52;;;;;;;14.35;9.50;;;;;;;10.59;63.82;100262.56;5141126;27;20031;-66
2023/12/29 10:35:18;;;;;;;11.13;7.85;;;;;;;10.60;64.68;100258.94;5140686;27;20106;-66
2023/12/29 10:37:44;;;;;;;14.65;9.18;;;;;;;10.78;63.92;100253.66;5140610;27;20042;-64
2023/12/29 10:40:17;;;;;;;14.38;8.55;;;;;;;10.82;63.02;100252.38;5140361;27;20066;-64
2023/12/29 10:42:54;;;;;;;14.32;6.72;;;;;;;10.77;60.28;100244.88;5139623;27;20031;-63
2023/12/29 10:45:20;;;;;;;10.57;7.78;;;;;;;10.84;60.71;100250.41;5139796;27;20421;-66
2023/12/29 10:47:46;;;;;;;17.40;9.68;;;;;;;10.87;61.58;100255.41;5139632;27;20314;-65
2023/12/29 10:50:12;;;;;;;29.35;12.05;;;;;;;10.93;62.27;100253.94;5139835;27;20042;-63
2023/12/29 10:52:40;;;;;;;20.63;13.35;;;;;;;11.04;62.12;100245.78;5140455;27;20187;-66
2023/12/29 10:55:11;;;;;;;18.15;11.30;;;;;;;11.03;62.36;100241.47;5139569;27;20050;-66
2023/12/29 10:57:37;;;;;;;16.60;10.23;;;;;;;10.98;60.59;100238.44;5140055;27;20050;-64
2023/12/29 11:00:03;;;;;;;19.90;12.55;;;;;;;11.01;61.78;100233.66;5140290;27;20066;-64
2023/12/29 11:02:29;;;;;;;18.88;11.75;;;;;;;11.15;61.84;100226.97;5139227;27;20118;-66
2023/12/29 11:05:08;;;;;;;18.42;11.30;;;;;;;11.23;61.22;100221.75;5139945;27;20038;-66
2023/12/29 11:07:35;;;;;;;18.88;11.07;;;;;;;11.27;61.91;100215.13;5140221;27;20258;-64
2023/12/29 11:10:05;;;;;;;15.57;10.52;;;;;;;11.09;62.62;100217.81;5140028;27;20042;-64
2023/12/29 11:12:33;;;;;;;18.67;10.70;;;;;;;11.14;63.80;100220.00;5139789;27;20064;-64
2023/12/29 11:15:01;;;;;;;18.15;10.45;;;;;;;11.17;62.85;100219.69;5140238;27;20046;-66